Time;durP1;ratioP1;P1;durP2;ratioP2;P2;SDS_P1;SDS_P2;PMS_P1;PMS_P2;Temp;Humidity;BMP_temperature;BMP_pressure;BME280_temperature;BME280_humidity;BME280_pressure;Samples;Min_cycle;Max_cycle;Signal;HPM_P1;HPM_P2
2022/06/28 00:02:08;;;;;;;24.92;20.17;;;;;;;;;;5083241;28;20528;-60
2022/06/28 00:04:41;;;;;;;23.20;19.10;;;;;;;;;;5081230;28;20044;-66
2022/06/28 00:07:09;;;;;;;24.67;20.58;;;;;;;;;;5079541;28;20305;-61
2022/06/28 00:09:36;;;;;;;22.15;19.85;;;;;;;;;;5083419;28;20113;-54
2022/06/28 00:12:10;;;;;;;25.92;20.45;;;;;;;;;;5080461;28;20071;-56
2022/06/28 00:17:30;;;;;;;22.98;19.85;;;;;;;;;;5078792;28;20079;-57
2022/06/28 00:19:58;;;;;;;23.38;19.73;;;;;;;;;;5083329;28;20077;-57
2022/06/28 00:22:25;;;;;;;27.20;21.25;;;;;;;;;;5085585;28;20135;-58
2022/06/28 00:24:59;;;;;;;23.92;20.60;;;;;;;;;;5080394;28;20040;-76
2022/06/28 00:27:27;;;;;;;27.52;22.13;;;;;;;;;;5080326;28;20135;-64
2022/06/28 00:29:54;;;;;;;;;;;;;;;;;;5085653;28;20516;-64
2022/06/28 00:32:28;;;;;;;28.20;20.63;;;;;;;;;;5081723;28;19979;-64
2022/06/28 00:34:55;;;;;;;23.65;19.20;;;;;;;;;;5079741;28;20052;-64
2022/06/28 00:37:25;;;;;;;23.27;19.40;;;;;;;;;;5069891;27;20056;-64
2022/06/28 00:40:05;;;;;;;28.40;22.30;;;;;;;;;;5060632;28;20083;-64
2022/06/28 00:42:32;;;;;;;28.08;21.90;;;;;;;;;;5059587;28;20117;-64
2022/06/28 00:45:07;;;;;;;26.90;22.05;;;;;;;;;;5066066;28;20718;-62
2022/06/28 00:47:34;;;;;;;;;;;;;;;;;;5054900;28;20133;-64
2022/06/28 00:50:02;;;;;;;22.88;20.15;;;;;;;;;;5062099;28;19963;-64
2022/06/28 00:52:36;;;;;;;23.83;21.30;;;;;;;;;;5054920;28;20433;-64
2022/06/28 00:55:04;;;;;;;23.90;19.90;;;;;;;;;;5055590;28;20448;-64
2022/06/28 00:57:31;;;;;;;23.30;20.80;;;;;;;;;;5045359;28;20037;-63
2022/06/28 01:00:04;;;;;;;28.88;22.48;;;;;;;;;;5039997;28;20068;-64
2022/06/28 01:02:32;;;;;;;214.80;35.65;;;;;;;;;;5036657;28;20073;-60
2022/06/28 01:04:59;;;;;;;192.45;33.08;;;;;;;;;;5053324;28;20103;-77
2022/06/28 01:07:32;;;;;;;41.55;26.50;;;;;;;;;;5057319;28;20145;-77
2022/06/28 01:09:59;;;;;;;28.13;22.80;;;;;;;;;;5060014;28;20444;-78
2022/06/28 01:12:27;;;;;;;31.15;23.10;;;;;;;;;;5060396;28;20151;-77
2022/06/28 01:15:00;;;;;;;31.98;23.55;;;;;;;;;;5056944;28;20122;-76
2022/06/28 01:17:28;;;;;;;42.05;25.48;;;;;;;;;;5056892;28;20076;-76
2022/06/28 01:19:55;;;;;;;66.18;28.08;;;;;;;;;;5062421;28;20063;-75
2022/06/28 01:22:30;;;;;;;307.58;36.38;;;;;;;;;;5061579;28;20043;-57
2022/06/28 01:24:57;;;;;;;72.10;26.33;;;;;;;;;;5059552;28;20377;-64
2022/06/28 01:27:24;;;;;;;513.33;48.05;;;;;;;;;;5056223;28;20416;-63
2022/06/28 01:29:58;;;;;;;44.50;27.83;;;;;;;;;;5060818;28;20529;-63
2022/06/28 01:32:26;;;;;;;37.83;27.77;;;;;;;;;;5064567;28;20052;-63
2022/06/28 01:34:53;;;;;;;37.97;27.63;;;;;;;;;;5055063;28;20080;-64
2022/06/28 01:37:34;;;;;;;36.50;27.83;;;;;;;;;;5069249;28;20126;-63
2022/06/28 01:40:08;;;;;;;45.10;29.15;;;;;;;;;;5079329;28;20105;-66
2022/06/28 01:42:42;;;;;;;123.35;30.75;;;;;;;;;;5079978;28;20079;-63
2022/06/28 01:45:10;;;;;;;221.63;36.28;;;;;;;;;;5082894;28;20044;-64
2022/06/28 01:47:38;;;;;;;36.60;19.92;;;;;;;;;;5078143;28;20719;-63
2022/06/28 01:50:12;;;;;;;21.13;14.27;;;;;;;;;;5083001;28;20048;-63
2022/06/28 01:52:41;;;;;;;17.77;11.43;;;;;;;;;;5083617;28;20488;-64
2022/06/28 01:55:09;;;;;;;19.48;12.90;;;;;;;;;;5081217;28;20158;-64
2022/06/28 01:57:44;;;;;;;37.70;12.75;;;;;;;;;;5064157;28;20068;-63
2022/06/28 02:00:11;;;;;;;91.43;16.67;;;;;;;;;;5083633;28;20140;-61
2022/06/28 02:02:38;;;;;;;;;;;;;;;;;;5084949;28;20064;-60
2022/06/28 02:05:12;;;;;;;22.60;11.90;;;;;;;;;;5082092;28;19928;-60
2022/06/28 02:07:47;;;;;;;33.05;13.63;;;;;;;;;;5086894;28;21092;-60
2022/06/28 02:10:20;;;;;;;112.30;17.27;;;;;;;;;;5067181;28;20045;-60
2022/06/28 02:12:48;;;;;;;27.13;12.23;;;;;;;;;;5083123;28;20600;-60
2022/06/28 02:15:15;;;;;;;25.65;10.30;;;;;;;;;;5085821;28;20306;-60
2022/06/28 02:17:49;;;;;;;26.08;10.48;;;;;;;;;;5083532;28;20456;-66
2022/06/28 02:20:16;;;;;;;17.27;10.02;;;;;;;;;;5078024;28;20048;-57
2022/06/28 02:22:44;;;;;;;58.92;11.60;;;;;;;;;;5085830;28;20140;-67
2022/06/28 02:25:18;;;;;;;15.90;7.93;;;;;;;;;;5082496;28;20485;-66
2022/06/28 02:27:47;;;;;;;21.08;8.77;;;;;;;;;;5084318;28;20076;-67
2022/06/28 02:30:14;;;;;;;15.50;8.48;;;;;;;;;;5079730;28;20093;-67
2022/06/28 02:32:49;;;;;;;25.80;8.43;;;;;;;;;;5087055;28;20330;-67
2022/06/28 02:41:01;;;;;;;16.38;5.80;;;;;;;;;;5081494;28;20078;-63
2022/06/28 02:43:34;;;;;;;20.40;4.80;;;;;;;;;;5082873;28;20136;-63
2022/06/28 02:46:02;;;;;;;10.77;4.40;;;;;;;;;;5085580;28;20040;-63
2022/06/28 02:48:31;;;;;;;6.20;3.67;;;;;;;;;;5084530;28;20051;-63
2022/06/28 02:51:05;;;;;;;7.30;3.78;;;;;;;;;;5082668;28;20052;-63
2022/06/28 02:53:33;;;;;;;13.27;3.92;;;;;;;;;;5084505;28;20424;-63
2022/06/28 02:56:00;;;;;;;7.85;3.55;;;;;;;;;;5083485;28;20032;-77
2022/06/28 02:58:33;;;;;;;7.35;3.45;;;;;;;;;;5071152;28;20586;-64
2022/06/28 03:01:01;;;;;;;6.43;2.50;;;;;;;;;;5080940;28;20072;-61
2022/06/28 03:03:28;;;;;;;4.97;2.50;;;;;;;;;;5078073;28;20491;-60
2022/06/28 03:06:01;;;;;;;9.35;2.70;;;;;;;;;;5082908;28;20083;-61
2022/06/28 03:08:28;;;;;;;9.70;2.63;;;;;;;;;;5084312;28;20250;-60
2022/06/28 03:10:56;;;;;;;5.10;2.38;;;;;;;;;;5087172;28;20135;-61
2022/06/28 03:13:29;;;;;;;7.45;2.10;;;;;;;;;;5081361;28;20524;-60
2022/06/28 03:15:56;;;;;;;5.88;2.40;;;;;;;;;;5084200;28;20199;-77
2022/06/28 03:18:24;;;;;;;6.53;2.10;;;;;;;;;;5082933;28;20127;-60
2022/06/28 03:20:57;;;;;;;7.63;2.30;;;;;;;;;;5079281;28;20071;-61
2022/06/28 03:23:25;;;;;;;7.45;2.17;;;;;;;;;;5082968;28;20590;-61
2022/06/28 03:25:52;;;;;;;5.07;2.25;;;;;;;;;;5062954;28;20036;-60
2022/06/28 03:28:26;;;;;;;8.20;2.83;;;;;;;;;;5083598;28;20052;-60
2022/06/28 03:30:54;;;;;;;7.72;2.67;;;;;;;;;;5081143;28;20098;-60
2022/06/28 03:33:21;;;;;;;8.55;2.67;;;;;;;;;;5084224;28;20071;-57
2022/06/28 03:35:55;;;;;;;6.35;3.20;;;;;;;;;;5081817;28;20115;-63
2022/06/28 03:38:34;;;;;;;7.45;3.22;;;;;;;;;;5082589;28;20060;-57
2022/06/28 03:41:09;;;;;;;7.00;3.40;;;;;;;;;;5079331;28;20536;-59
2022/06/28 03:43:36;;;;;;;3.35;2.97;;;;;;;;;;5077798;28;20072;-58
2022/06/28 03:46:03;;;;;;;3.65;3.35;;;;;;;;;;5079726;28;20043;-59
2022/06/28 03:48:38;;;;;;;10.15;3.70;;;;;;;;;;5084350;28;20420;-58
2022/06/28 03:51:05;;;;;;;7.78;3.97;;;;;;;;;;5084424;28;20137;-59
2022/06/28 03:53:32;;;;;;;6.15;3.40;;;;;;;;;;5079677;28;20048;-65
2022/06/28 03:56:07;;;;;;;11.35;4.32;;;;;;;;;;5085033;28;20131;-55
2022/06/28 03:58:34;;;;;;;8.57;3.45;;;;;;;;;;5078960;28;20163;-57
2022/06/28 04:01:01;;;;;;;7.40;3.90;;;;;;;;;;5078019;28;20048;-56
2022/06/28 04:03:35;;;;;;;10.20;4.63;;;;;;;;;;5083863;28;20424;-52
2022/06/28 04:06:03;;;;;;;17.25;4.65;;;;;;;;;;5087581;28;20546;-53
2022/06/28 04:08:30;;;;;;;10.90;4.50;;;;;;;;;;5071530;28;20048;-52
2022/06/28 04:11:14;;;;;;;10.27;4.50;;;;;;;;;;5082727;28;20095;-55
2022/06/28 04:13:45;;;;;;;11.27;4.38;;;;;;;;;;5080279;28;20048;-74
2022/06/28 04:16:21;;;;;;;10.10;4.57;;;;;;;;;;5083248;28;20067;-75
2022/06/28 04:18:49;;;;;;;9.10;4.63;;;;;;;;;;5080941;28;20143;-75
2022/06/28 04:21:16;;;;;;;;;;;;;;;;;;5079141;28;20076;-73
2022/06/28 04:23:50;;;;;;;10.48;5.22;;;;;;;;;;5080520;28;20265;-75
2022/06/28 04:26:17;;;;;;;;;;;;;;;;;;5076923;28;20060;-76
2022/06/28 04:28:44;;;;;;;12.68;5.55;;;;;;;;;;5079197;28;19973;-76
2022/06/28 04:31:18;;;;;;;14.63;5.18;;;;;;;;;;5081612;28;20069;-64
2022/06/28 04:33:46;;;;;;;16.50;4.95;;;;;;;;;;5086056;28;20524;-76
2022/06/28 04:36:13;;;;;;;19.85;5.15;;;;;;;;;;5074671;28;20044;-60
2022/06/28 04:38:55;;;;;;;14.25;4.95;;;;;;;;;;5081572;27;20484;-60
2022/06/28 04:41:24;;;;;;;27.83;5.60;;;;;;;;;;5079616;28;20059;-60
2022/06/28 04:43:57;;;;;;;11.68;5.25;;;;;;;;;;5077701;28;20145;-60
2022/06/28 04:46:25;;;;;;;22.83;6.38;;;;;;;;;;5083707;28;20079;-61
2022/06/28 04:48:52;;;;;;;16.70;5.20;;;;;;;;;;5079275;28;20048;-60
2022/06/28 04:51:26;;;;;;;19.58;5.78;;;;;;;;;;5084820;28;20036;-58
2022/06/28 04:53:54;;;;;;;20.10;5.30;;;;;;;;;;5086868;28;20048;-63
2022/06/28 04:56:23;;;;;;;14.25;5.93;;;;;;;;;;5081397;28;20325;-62
2022/06/28 04:58:57;;;;;;;15.73;5.70;;;;;;;;;;5077291;28;20084;-61
2022/06/28 05:01:25;;;;;;;19.00;6.30;;;;;;;;;;5076903;28;20080;-62
2022/06/28 05:03:52;;;;;;;22.98;5.95;;;;;;;;;;5081349;28;20052;-62
2022/06/28 05:06:27;;;;;;;17.13;6.00;;;;;;;;;;5082245;28;20128;-62
2022/06/28 05:08:56;;;;;;;14.80;6.00;;;;;;;;;;5084143;28;20122;-62
2022/06/28 05:11:43;;;;;;;14.75;6.28;;;;;;;;;;5080664;28;20708;-56
2022/06/28 05:14:16;;;;;;;20.38;6.47;;;;;;;;;;5080175;28;20521;-64
2022/06/28 05:16:45;;;;;;;19.85;6.70;;;;;;;;;;5080071;28;20052;-64
2022/06/28 05:19:13;;;;;;;27.92;6.90;;;;;;;;;;5083340;28;20131;-64
2022/06/28 05:21:48;;;;;;;22.40;7.72;;;;;;;;;;5074707;28;20044;-64
2022/06/28 05:24:15;;;;;;;21.08;7.30;;;;;;;;;;5080169;28;20068;-63
2022/06/28 05:26:42;;;;;;;24.52;7.43;;;;;;;;;;5069661;28;20075;-63
2022/06/28 05:29:17;;;;;;;26.30;7.50;;;;;;;;;;5074971;28;20504;-65
2022/06/28 05:31:45;;;;;;;18.85;7.30;;;;;;;;;;5081230;28;20044;-63
2022/06/28 05:34:12;;;;;;;19.15;7.10;;;;;;;;;;5079146;28;20051;-63
2022/06/28 05:36:47;;;;;;;26.92;7.57;;;;;;;;;;5075632;28;20068;-63
2022/06/28 05:39:21;;;;;;;20.83;7.95;;;;;;;;;;5081335;28;20134;-64
2022/06/28 05:41:55;;;;;;;24.15;8.48;;;;;;;;;;5073429;28;20124;-63
2022/06/28 05:44:23;;;;;;;27.70;7.60;;;;;;;;;;5082396;28;20071;-64
2022/06/28 05:46:53;;;;;;;19.33;7.57;;;;;;;;;;5078985;28;20072;-60
2022/06/28 05:49:28;;;;;;;19.88;7.22;;;;;;;;;;5083884;28;20059;-60
2022/06/28 05:51:55;;;;;;;25.20;8.95;;;;;;;;;;5077580;28;20329;-65
2022/06/28 05:54:22;;;;;;;24.05;8.43;;;;;;;;;;5059748;28;20099;-64
2022/06/28 05:56:56;;;;;;;24.88;8.70;;;;;;;;;;5079372;28;20048;-65
2022/06/28 05:59:24;;;;;;;22.42;8.30;;;;;;;;;;5077500;28;20142;-66
2022/06/28 06:01:53;;;;;;;23.05;8.30;;;;;;;;;;5079042;28;20377;-65
2022/06/28 06:04:27;;;;;;;30.25;9.13;;;;;;;;;;5080996;28;20049;-65
2022/06/28 06:06:54;;;;;;;32.17;9.20;;;;;;;;;;5078324;28;20260;-53
2022/06/28 06:09:21;;;;;;;30.20;9.38;;;;;;;;;;5077540;28;20673;-64
2022/06/28 06:11:55;;;;;;;30.05;8.80;;;;;;;;;;5076210;28;20110;-64
2022/06/28 06:14:23;;;;;;;;;;;;;;;;;;5083109;28;20073;-65
2022/06/28 06:16:53;;;;;;;20.33;7.40;;;;;;;;;;5081357;28;20036;-65
2022/06/28 06:19:27;;;;;;;32.97;8.95;;;;;;;;;;5080405;28;20087;-65
2022/06/28 06:21:55;;;;;;;32.72;9.25;;;;;;;;;;5078323;28;20900;-66
2022/06/28 06:24:22;;;;;;;;;;;;;;;;;;5073575;28;20692;-65
2022/06/28 06:26:56;;;;;;;26.10;8.23;;;;;;;;;;5079587;28;19956;-61
2022/06/28 06:29:24;;;;;;;17.17;7.63;;;;;;;;;;5074347;28;20500;-72
2022/06/28 06:31:51;;;;;;;23.83;8.90;;;;;;;;;;5083814;28;20044;-70
2022/06/28 06:34:26;;;;;;;27.02;9.15;;;;;;;;;;5080522;28;20043;-71
2022/06/28 06:36:53;;;;;;;30.20;9.50;;;;;;;;;;5082507;28;20102;-70
2022/06/28 06:39:20;;;;;;;37.58;9.98;;;;;;;;;;5079407;27;20147;-70
2022/06/28 06:42:01;;;;;;;32.22;9.45;;;;;;;;;;5083205;28;20047;-70
2022/06/28 06:44:28;;;;;;;37.58;9.50;;;;;;;;;;5081693;28;20052;-66
2022/06/28 06:47:02;;;;;;;33.42;10.25;;;;;;;;;;5083389;28;20089;-60
2022/06/28 06:49:29;;;;;;;38.10;9.77;;;;;;;;;;5060174;28;20047;-63
2022/06/28 06:51:56;;;;;;;32.63;8.73;;;;;;;;;;5084585;28;20208;-63
2022/06/28 06:54:31;;;;;;;31.77;9.35;;;;;;;;;;5080669;28;20163;-63
2022/06/28 06:56:58;;;;;;;30.95;10.02;;;;;;;;;;5084497;28;20052;-63
2022/06/28 06:59:25;;;;;;;27.95;9.80;;;;;;;;;;5078721;28;20163;-64
2022/06/28 07:01:59;;;;;;;26.92;9.93;;;;;;;;;;5082052;28;20074;-64
2022/06/28 07:04:26;;;;;;;27.75;9.63;;;;;;;;;;5079760;28;20051;-56
2022/06/28 07:07:00;;;;;;;32.67;9.18;;;;;;;;;;5082819;28;20040;-60
2022/06/28 07:09:35;;;;;;;33.75;9.68;;;;;;;;;;5080823;28;20584;-60
2022/06/28 07:12:02;;;;;;;28.42;8.73;;;;;;;;;;5060684;28;20072;-61
2022/06/28 07:14:29;;;;;;;34.30;9.75;;;;;;;;;;5087150;28;20087;-60
2022/06/28 07:17:04;;;;;;;33.05;9.63;;;;;;;;;;5083666;28;20048;-60
2022/06/28 07:19:31;;;;;;;28.00;10.20;;;;;;;;;;5082369;28;20151;-60
2022/06/28 07:21:58;;;;;;;24.52;9.35;;;;;;;;;;5075279;28;20048;-64
2022/06/28 07:24:33;;;;;;;23.73;8.90;;;;;;;;;;5077607;28;20076;-59
2022/06/28 07:27:00;;;;;;;26.98;9.57;;;;;;;;;;5077765;28;20143;-65
2022/06/28 07:29:27;;;;;;;26.75;9.55;;;;;;;;;;5082393;28;20621;-65
2022/06/28 07:32:01;;;;;;;31.30;9.82;;;;;;;;;;5083391;28;20048;-65
2022/06/28 07:34:31;;;;;;;36.83;9.07;;;;;;;;;;5083408;28;20527;-66
2022/06/28 07:36:58;;;;;;;21.98;9.00;;;;;;;;;;5081081;28;20052;-66
2022/06/28 07:39:38;;;;;;;22.13;10.00;;;;;;;;;;5061106;27;20650;-66
2022/06/28 07:42:06;;;;;;;24.77;9.75;;;;;;;;;;5051997;28;20451;-64
2022/06/28 07:44:40;;;;;;;23.55;9.55;;;;;;;;;;5058996;28;20148;-64
2022/06/28 07:47:07;;;;;;;28.17;9.48;;;;;;;;;;5055608;28;20652;-64
2022/06/28 07:52:37;;;;;;;32.70;9.52;;;;;;;;;;5055603;28;20063;-64
2022/06/28 07:55:07;;;;;;;21.88;8.95;;;;;;;;;;5055678;28;20206;-65
2022/06/28 07:57:40;;;;;;;24.02;9.88;;;;;;;;;;5056730;28;20118;-65
2022/06/28 08:00:08;;;;;;;25.35;8.95;;;;;;;;;;5055376;28;20506;-65
2022/06/28 08:02:36;;;;;;;24.17;8.95;;;;;;;;;;5053722;28;20074;-64
2022/06/28 08:05:11;;;;;;;28.42;9.57;;;;;;;;;;5054635;28;20056;-65
2022/06/28 08:07:39;;;;;;;35.95;10.52;;;;;;;;;;5053524;28;20532;-65
2022/06/28 08:10:07;;;;;;;23.25;9.90;;;;;;;;;;5054295;28;20552;-66
2022/06/28 08:12:40;;;;;;;28.92;10.43;;;;;;;;;;5053318;28;20136;-65
2022/06/28 08:15:08;;;;;;;23.38;9.52;;;;;;;;;;5055246;28;20111;-66
2022/06/28 08:17:36;;;;;;;24.42;10.18;;;;;;;;;;5054298;28;20150;-65
2022/06/28 08:20:10;;;;;;;23.65;9.77;;;;;;;;;;5052557;28;20053;-65
2022/06/28 08:22:37;;;;;;;20.83;7.75;;;;;;;;;;5055568;28;20099;-65
2022/06/28 08:25:05;;;;;;;21.33;9.57;;;;;;;;;;5055214;28;20501;-66
2022/06/28 08:27:46;;;;;;;19.50;8.68;;;;;;;;;;5053200;28;20502;-67
2022/06/28 08:30:13;;;;;;;34.08;9.88;;;;;;;;;;5054320;28;20139;-66
2022/06/28 08:32:48;;;;;;;21.27;8.70;;;;;;;;;;5054301;28;20048;-66
2022/06/28 08:35:15;;;;;;;30.83;9.43;;;;;;;;;;5040226;28;20068;-67
2022/06/28 08:37:42;;;;;;;;;;;;;;;;;;5054264;28;20084;-67
2022/06/28 08:40:26;;;;;;;20.70;7.22;;;;;;;;;;5058479;28;20067;-59
2022/06/28 08:42:54;;;;;;;18.73;6.18;;;;;;;;;;5064370;28;20048;-61
2022/06/28 08:45:31;;;;;;;;;;;;;;;;;;5063314;28;20144;-61
2022/06/28 08:48:01;;;;;;;20.42;6.82;;;;;;;;;;5061351;28;20490;-61
2022/06/28 08:50:39;;;;;;;26.63;6.43;;;;;;;;;;5060367;28;20072;-61
2022/06/28 08:53:08;;;;;;;16.75;6.75;;;;;;;;;;5067098;28;20048;-61
2022/06/28 08:55:36;;;;;;;19.65;6.00;;;;;;;;;;5064453;28;20079;-61
2022/06/28 08:58:10;;;;;;;17.15;6.28;;;;;;;;;;5064684;28;20342;-80
2022/06/28 09:00:38;;;;;;;20.92;6.93;;;;;;;;;;5066089;28;20052;-61
2022/06/28 09:03:05;;;;;;;21.23;6.13;;;;;;;;;;5066803;28;20126;-64
2022/06/28 09:05:44;;;;;;;20.98;7.05;;;;;;;;;;5063788;28;20174;-64
2022/06/28 09:08:11;;;;;;;17.30;6.97;;;;;;;;;;5060139;28;20106;-63
2022/06/28 09:10:38;;;;;;;17.05;6.13;;;;;;;;;;5064679;28;20102;-64
2022/06/28 09:13:16;;;;;;;12.83;6.20;;;;;;;;;;5066313;28;20530;-64
2022/06/28 09:15:52;;;;;;;23.13;6.47;;;;;;;;;;5070826;28;20052;-64
2022/06/28 09:18:42;;;;;;;20.08;6.18;;;;;;;;;;5063543;28;20067;-54
2022/06/28 09:21:11;;;;;;;21.48;6.07;;;;;;;;;;5066115;28;20056;-58
2022/06/28 09:23:47;;;;;;;16.77;5.05;;;;;;;;;;5063818;28;20110;-57
2022/06/28 09:26:16;;;;;;;17.52;5.03;;;;;;;;;;5059770;28;20056;-57
2022/06/28 09:28:49;;;;;;;15.05;5.50;;;;;;;;;;5058614;28;20108;-54
2022/06/28 09:31:24;;;;;;;14.25;4.90;;;;;;;;;;5056994;28;20051;-57
2022/06/28 09:34:01;;;;;;;19.17;5.45;;;;;;;;;;5068972;28;20046;-56
2022/06/28 09:36:37;;;;;;;18.83;4.78;;;;;;;;;;5061031;28;20136;-63
2022/06/28 09:39:20;;;;;;;17.17;5.15;;;;;;;;;;5073842;27;20051;-63
2022/06/28 09:41:55;;;;;;;13.90;5.47;;;;;;;;;;5082891;28;20064;-63
2022/06/28 09:44:51;;;;;;;15.55;4.55;;;;;;;;;;5075597;28;20206;-63
2022/06/28 09:47:25;;;;;;;16.02;5.38;;;;;;;;;;5074894;28;20502;-62
2022/06/28 09:50:12;;;;;;;19.70;5.38;;;;;;;;;;5079243;28;20048;-62
2022/06/28 09:52:47;;;;;;;17.15;5.00;;;;;;;;;;5083384;28;20611;-62
2022/06/28 09:55:14;;;;;;;;;;;;;;;;;;5082323;28;20040;-56
2022/06/28 09:57:45;;;;;;;17.48;4.55;;;;;;;;;;5082624;28;19919;-60
2022/06/28 10:00:24;;;;;;;;;;;;;;;;;;5078233;28;20602;-62
2022/06/28 10:02:54;;;;;;;16.20;4.85;;;;;;;;;;5078879;28;19970;-62
2022/06/28 10:05:28;;;;;;;14.90;4.80;;;;;;;;;;5075925;28;20075;-61
2022/06/28 10:07:55;;;;;;;;;;;;;;;;;;5079921;28;20060;-61
2022/06/28 10:10:24;;;;;;;8.07;3.58;;;;;;;;;;5089312;28;20015;-61
2022/06/28 10:16:04;;;;;;;15.82;4.47;;;;;;;;;;5087464;28;20497;-68
2022/06/28 10:18:41;;;;;;;11.70;4.03;;;;;;;;;;5078792;28;20048;-60
2022/06/28 10:21:08;;;;;;;14.75;4.28;;;;;;;;;;5088158;28;20143;-60
2022/06/28 10:23:42;;;;;;;13.43;3.97;;;;;;;;;;5083057;28;20048;-60
2022/06/28 10:26:16;;;;;;;12.15;3.83;;;;;;;;;;5065804;28;20166;-60
2022/06/28 10:28:44;;;;;;;8.45;3.50;;;;;;;;;;5079832;28;20508;-60
2022/06/28 10:31:23;;;;;;;19.27;4.00;;;;;;;;;;5082651;28;20497;-60
2022/06/28 10:34:15;;;;;;;15.57;3.72;;;;;;;;;;5083247;28;20076;-56
2022/06/28 10:36:45;;;;;;;15.05;3.22;;;;;;;;;;5083428;28;20048;-66
2022/06/28 10:39:31;;;;;;;13.13;3.70;;;;;;;;;;5085523;27;20052;-66
2022/06/28 10:41:59;;;;;;;11.93;3.30;;;;;;;;;;5082852;28;20237;-66
2022/06/28 10:44:33;;;;;;;11.45;2.78;;;;;;;;;;5087621;28;20043;-66
2022/06/28 10:47:06;;;;;;;15.35;3.05;;;;;;;;;;5079869;28;20308;-66
2022/06/28 10:49:46;;;;;;;12.82;3.30;;;;;;;;;;5080735;28;20589;-66
2022/06/28 10:52:16;;;;;;;8.35;2.83;;;;;;;;;;5081684;28;20040;-60
2022/06/28 10:54:54;;;;;;;9.17;2.93;;;;;;;;;;5080731;28;20102;-67
2022/06/28 10:57:21;;;;;;;13.30;2.83;;;;;;;;;;5087245;28;24926;-56
2022/06/28 10:59:50;;;;;;;11.90;3.28;;;;;;;;;;5088544;28;20076;-51
2022/06/28 11:02:24;;;;;;;12.70;2.90;;;;;;;;;;5087931;28;20035;-52
2022/06/28 11:05:04;;;;;;;17.77;3.88;;;;;;;;;;5082007;28;20056;-54
2022/06/28 11:07:40;;;;;;;16.88;2.92;;;;;;;;;;5077417;28;20117;-51
2022/06/28 11:10:10;;;;;;;13.57;3.38;;;;;;;;;;5082578;28;20067;-50
2022/06/28 11:12:38;;;;;;;14.63;2.92;;;;;;;;;;5084581;28;20075;-61
2022/06/28 11:15:36;;;;;;;11.05;3.60;;;;;;;;;;5086279;28;20562;-60
2022/06/28 11:18:14;;;;;;;11.57;2.80;;;;;;;;;;5081733;28;20044;-60
2022/06/28 11:20:49;;;;;;;14.43;3.42;;;;;;;;;;5084775;28;20075;-60
2022/06/28 11:23:24;;;;;;;13.32;3.03;;;;;;;;;;5082339;28;20046;-59
2022/06/28 11:29:01;;;;;;;12.05;3.35;;;;;;;;;;5083206;28;20139;-60
2022/06/28 11:31:43;;;;;;;16.73;2.95;;;;;;;;;;5081618;28;20496;-61
2022/06/28 11:34:10;;;;;;;10.95;2.80;;;;;;;;;;5079959;28;20570;-48
2022/06/28 11:36:45;;;;;;;10.18;2.83;;;;;;;;;;5075587;28;20463;-52
2022/06/28 11:39:25;;;;;;;12.60;2.85;;;;;;;;;;5083552;27;20147;-53
2022/06/28 11:42:00;;;;;;;8.93;2.38;;;;;;;;;;5082647;28;20083;-49
2022/06/28 11:44:27;;;;;;;7.97;2.40;;;;;;;;;;5079913;28;20097;-55
2022/06/28 11:46:55;;;;;;;11.95;2.40;;;;;;;;;;5081017;28;20507;-53
2022/06/28 11:49:34;;;;;;;13.90;2.88;;;;;;;;;;5067079;28;20048;-60
2022/06/28 11:52:01;;;;;;;17.25;2.45;;;;;;;;;;5075963;28;20044;-55
2022/06/28 11:54:36;;;;;;;15.93;2.72;;;;;;;;;;5073565;28;20465;-63
2022/06/28 11:57:32;;;;;;;13.13;2.70;;;;;;;;;;5082086;28;20504;-63
2022/06/28 12:00:07;;;;;;;12.48;2.70;;;;;;;;;;5077010;28;20551;-64
2022/06/28 12:02:41;;;;;;;10.55;2.38;;;;;;;;;;5077186;28;20574;-64
2022/06/28 12:05:15;;;;;;;15.70;2.88;;;;;;;;;;5086289;28;20132;-64
2022/06/28 12:07:43;;;;;;;10.73;2.33;;;;;;;;;;5075692;28;20275;-65
2022/06/28 12:10:20;;;;;;;11.13;2.58;;;;;;;;;;5077398;28;20079;-63
2022/06/28 12:12:54;;;;;;;13.30;2.67;;;;;;;;;;5079111;28;20110;-52
2022/06/28 12:15:21;;;;;;;;;;;;;;;;;;5084672;28;20175;-52
2022/06/28 12:17:54;;;;;;;10.70;2.40;;;;;;;;;;5084742;28;20007;-50
2022/06/28 12:20:29;;;;;;;9.40;2.75;;;;;;;;;;5084535;28;20049;-53
2022/06/28 12:22:57;;;;;;;8.73;2.53;;;;;;;;;;5085628;28;20060;-51
2022/06/28 12:25:24;;;;;;;13.27;2.30;;;;;;;;;;5078538;28;20143;-52
2022/06/28 12:27:59;;;;;;;9.07;2.33;;;;;;;;;;5077561;28;20079;-60
2022/06/28 12:30:26;;;;;;;;;;;;;;;;;;5084412;28;20478;-60
2022/06/28 12:32:58;;;;;;;14.25;2.70;;;;;;;;;;5081849;28;19924;-60
2022/06/28 12:35:32;;;;;;;6.75;2.05;;;;;;;;;;5079766;28;20127;-60
2022/06/28 12:37:59;;;;;;;8.18;1.92;;;;;;;;;;5083161;28;20044;-60
2022/06/28 12:40:26;;;;;;;10.05;2.58;;;;;;;;;;5077823;27;20646;-60
2022/06/28 12:43:01;;;;;;;13.00;2.53;;;;;;;;;;5074491;28;20067;-61
2022/06/28 12:45:28;;;;;;;9.70;2.83;;;;;;;;;;5083316;28;20607;-60
2022/06/28 12:47:55;;;;;;;9.43;2.33;;;;;;;;;;5075980;28;20560;-66
2022/06/28 12:50:30;;;;;;;13.45;2.63;;;;;;;;;;5075472;28;20356;-65
2022/06/28 12:52:57;;;;;;;15.15;2.45;;;;;;;;;;5080707;28;20652;-65
2022/06/28 12:55:25;;;;;;;9.35;2.50;;;;;;;;;;5067652;28;20514;-66
2022/06/28 12:57:59;;;;;;;14.20;2.70;;;;;;;;;;5082763;28;20076;-66
2022/06/28 13:00:26;;;;;;;;;;;;;;;;;;5076804;28;20051;-66
2022/06/28 13:02:54;;;;;;;7.78;2.47;;;;;;;;;;5075776;28;19935;-66
2022/06/28 13:05:28;;;;;;;12.68;2.15;;;;;;;;;;5085078;28;20048;-66
2022/06/28 13:07:56;;;;;;;6.00;1.90;;;;;;;;;;5079962;28;20060;-57
2022/06/28 13:10:24;;;;;;;12.77;2.40;;;;;;;;;;5081092;28;20079;-66
2022/06/28 13:12:58;;;;;;;10.77;2.58;;;;;;;;;;5078877;28;20074;-66
2022/06/28 13:15:25;;;;;;;10.90;2.00;;;;;;;;;;5084823;28;20044;-66
2022/06/28 13:17:52;;;;;;;6.72;1.92;;;;;;;;;;5081557;28;20044;-66
2022/06/28 13:20:27;;;;;;;7.15;2.38;;;;;;;;;;5086664;28;20047;-66
2022/06/28 13:22:57;;;;;;;8.18;2.20;;;;;;;;;;5084702;28;20167;-66
2022/06/28 13:25:24;;;;;;;8.93;2.50;;;;;;;;;;5076564;28;20076;-59
2022/06/28 13:27:58;;;;;;;8.30;2.20;;;;;;;;;;5084948;28;20045;-61
2022/06/28 13:30:25;;;;;;;8.40;2.08;;;;;;;;;;5081734;28;20090;-61
2022/06/28 13:32:52;;;;;;;9.98;2.60;;;;;;;;;;5078387;28;20088;-61
2022/06/28 13:35:27;;;;;;;5.93;1.80;;;;;;;;;;5080683;28;20044;-61
2022/06/28 13:37:54;;;;;;;10.80;2.60;;;;;;;;;;5084067;28;20127;-61
2022/06/28 13:40:21;;;;;;;8.38;2.00;;;;;;;;;;5077269;27;20291;-61
2022/06/28 13:42:56;;;;;;;8.30;2.28;;;;;;;;;;5081881;28;20079;-66
2022/06/28 13:45:23;;;;;;;8.00;2.05;;;;;;;;;;5083495;28;20136;-60
2022/06/28 13:47:50;;;;;;;7.30;1.85;;;;;;;;;;5082026;28;20113;-66
2022/06/28 13:50:25;;;;;;;8.10;1.90;;;;;;;;;;5083958;28;20225;-66
2022/06/28 13:52:52;;;;;;;12.55;2.55;;;;;;;;;;5082029;28;20082;-66
2022/06/28 13:55:23;;;;;;;5.50;2.17;;;;;;;;;;5089208;28;20104;-66
2022/06/28 13:57:57;;;;;;;6.05;2.08;;;;;;;;;;5084021;28;20071;-65
2022/06/28 14:00:24;;;;;;;7.30;1.88;;;;;;;;;;5080769;28;20072;-67
2022/06/28 14:02:52;;;;;;;6.63;1.80;;;;;;;;;;5081956;28;20081;-55
2022/06/28 14:05:27;;;;;;;7.55;1.90;;;;;;;;;;5083132;28;20528;-60
2022/06/28 14:07:54;;;;;;;;;;;;;;;;;;5086907;28;20558;-66
2022/06/28 14:10:21;;;;;;;8.60;1.98;;;;;;;;;;5080111;28;19955;-66
2022/06/28 14:12:56;;;;;;;10.40;2.00;;;;;;;;;;5083928;28;20126;-66
2022/06/28 14:15:23;;;;;;;7.30;2.00;;;;;;;;;;5085861;28;20131;-66
2022/06/28 14:17:57;;;;;;;7.13;2.00;;;;;;;;;;5083791;28;20060;-66
2022/06/28 14:20:31;;;;;;;8.73;1.95;;;;;;;;;;5082515;28;20070;-66
2022/06/28 14:22:58;;;;;;;;;;;;;;;;;;5088843;28;20087;-64
2022/06/28 14:25:25;;;;;;;6.78;1.90;;;;;;;;;;5085625;28;20027;-64
2022/06/28 14:28:00;;;;;;;10.75;2.70;;;;;;;;;;5081906;28;20124;-64
2022/06/28 14:30:28;;;;;;;10.38;2.28;;;;;;;;;;5081794;28;20048;-64
2022/06/28 14:32:56;;;;;;;6.15;1.98;;;;;;;;;;5087020;28;20044;-64
2022/06/28 14:35:31;;;;;;;4.20;1.75;;;;;;;;;;5082423;28;20051;-64
2022/06/28 14:38:18;;;;;;;6.40;1.93;;;;;;;;;;5083738;28;20132;-63
2022/06/28 14:40:58;;;;;;;8.32;2.10;;;;;;;;;;5083424;28;20088;-66
2022/06/28 14:43:26;;;;;;;8.73;2.08;;;;;;;;;;5078491;28;20064;-61
2022/06/28 14:46:00;;;;;;;12.90;2.08;;;;;;;;;;5086041;28;20135;-64
2022/06/28 14:48:27;;;;;;;;;;;;;;;;;;5083275;28;20352;-64
2022/06/28 14:50:55;;;;;;;7.32;2.03;;;;;;;;;;5079943;28;19927;-64
2022/06/28 14:53:30;;;;;;;6.35;1.70;;;;;;;;;;5078508;28;20143;-64
2022/06/28 14:55:59;;;;;;;5.15;1.65;;;;;;;;;;5082169;28;20041;-64
2022/06/28 14:58:26;;;;;;;5.22;1.60;;;;;;;;;;5081461;28;20129;-64
2022/06/28 15:01:03;;;;;;;6.43;1.80;;;;;;;;;;5078187;28;20602;-57
2022/06/28 15:03:31;;;;;;;6.70;1.98;;;;;;;;;;5085210;28;20421;-62
2022/06/28 15:05:58;;;;;;;4.35;1.50;;;;;;;;;;5076692;28;20044;-62
2022/06/28 15:08:33;;;;;;;3.22;1.65;;;;;;;;;;5077854;28;20083;-61
2022/06/28 15:11:00;;;;;;;7.88;1.80;;;;;;;;;;5080802;28;20047;-61
2022/06/28 15:13:29;;;;;;;7.18;1.95;;;;;;;;;;5081189;28;20039;-62
2022/06/28 15:16:03;;;;;;;4.05;1.90;;;;;;;;;;5084230;28;20075;-62
2022/06/28 15:18:30;;;;;;;;;;;;;;;;;;5084259;28;20527;-60